Time;durP1;ratioP1;P1;durP2;ratioP2;P2;SDS_P1;SDS_P2;PMS_P1;PMS_P2;Temp;Humidity;BMP_temperature;BMP_pressure;BME280_temperature;BME280_humidity;BME280_pressure;Samples;Min_cycle;Max_cycle;Signal;HPM_P1;HPM_P2
2021/11/26 00:02:17;;;;;;;18.23;6.28;;;6.60;99.90;;;;;;5020870;28;20255;-83
2021/11/26 00:04:43;;;;;;;15.38;6.28;;;6.50;99.90;;;;;;5039320;28;20189;-83
2021/11/26 00:07:09;;;;;;;11.97;6.40;;;6.70;99.90;;;;;;5022659;28;20177;-83
2021/11/26 00:09:35;;;;;;;9.82;6.00;;;6.70;99.90;;;;;;5055674;28;20157;-83
2021/11/26 00:12:02;;;;;;;9.90;5.90;;;6.60;99.90;;;;;;5055649;28;20208;-82
2021/11/26 00:14:31;;;;;;;21.83;8.45;;;6.60;99.90;;;;;;5027401;28;20246;-82
2021/11/26 00:16:58;;;;;;;19.77;7.55;;;6.50;99.90;;;;;;5006554;28;20549;-82
2021/11/26 00:19:25;;;;;;;12.35;6.72;;;6.60;99.90;;;;;;5019086;28;20276;-83
2021/11/26 00:21:51;;;;;;;15.80;5.68;;;6.50;99.90;;;;;;5002638;28;20212;-83
2021/11/26 00:24:20;;;;;;;16.70;6.28;;;6.60;99.90;;;;;;5018317;28;20552;-83
2021/11/26 00:26:48;;;;;;;19.52;7.00;;;6.50;99.90;;;;;;5018776;28;20270;-82
2021/11/26 00:29:14;;;;;;;11.93;6.65;;;6.60;99.90;;;;;;5019766;28;20641;-82
2021/11/26 00:31:41;;;;;;;12.93;7.00;;;6.60;99.90;;;;;;5002163;28;20213;-83
2021/11/26 00:34:07;;;;;;;10.55;5.43;;;6.70;99.90;;;;;;5018866;28;20169;-82
2021/11/26 00:36:33;;;;;;;14.23;7.22;;;6.60;99.90;;;;;;5020395;28;20197;-81
2021/11/26 00:39:00;;;;;;;15.02;7.43;;;6.70;99.90;;;;;;5019522;28;20184;-82
2021/11/26 00:41:26;;;;;;;13.50;6.45;;;6.60;99.90;;;;;;5038051;28;20173;-82
2021/11/26 00:43:52;;;;;;;9.77;5.97;;;6.60;99.90;;;;;;5020257;28;20204;-82
2021/11/26 00:46:18;;;;;;;13.40;6.63;;;6.50;99.90;;;;;;5038055;28;20402;-81
2021/11/26 00:48:44;;;;;;;14.65;6.85;;;6.50;99.90;;;;;;5038234;28;20892;-82
2021/11/26 00:51:10;;;;;;;16.53;6.20;;;6.70;99.90;;;;;;5019508;28;20351;-81
2021/11/26 00:53:36;;;;;;;13.93;7.13;;;6.60;99.90;;;;;;5019031;28;20424;-81
2021/11/26 00:56:03;;;;;;;10.32;5.43;;;6.70;99.90;;;;;;5019396;28;20200;-82
2021/11/26 00:58:29;;;;;;;19.80;7.07;;;6.80;99.90;;;;;;5037549;28;20185;-84
2021/11/26 01:00:56;;;;;;;14.85;6.05;;;6.80;99.90;;;;;;5020759;28;20173;-85
2021/11/26 01:03:22;;;;;;;15.88;5.88;;;6.70;99.90;;;;;;5020247;28;20181;-84
2021/11/26 01:05:49;;;;;;;14.07;5.15;;;6.60;99.90;;;;;;5004041;28;20197;-85
2021/11/26 01:08:15;;;;;;;12.25;6.32;;;6.50;99.90;;;;;;4987863;28;20212;-85
2021/11/26 01:10:42;;;;;;;10.32;6.30;;;6.50;99.90;;;;;;5020352;28;20193;-85
2021/11/26 01:13:08;;;;;;;11.75;6.05;;;6.50;99.90;;;;;;5020621;28;20394;-83
2021/11/26 01:15:36;;;;;;;10.38;6.50;;;6.40;99.90;;;;;;5020652;28;20201;-85
2021/11/26 01:18:03;;;;;;;11.10;6.32;;;6.60;99.90;;;;;;5020044;28;20231;-85
2021/11/26 01:20:30;;;;;;;12.13;6.13;;;6.50;99.90;;;;;;5020126;28;20208;-85
2021/11/26 01:22:56;;;;;;;11.75;6.80;;;6.50;99.90;;;;;;5037460;28;20644;-85
2021/11/26 01:25:22;;;;;;;14.93;7.97;;;6.50;99.90;;;;;;5037631;28;20189;-85
2021/11/26 01:27:48;;;;;;;10.32;5.10;;;6.70;99.90;;;;;;5019259;28;20514;-85
2021/11/26 01:32:53;;;;;;;11.60;5.53;;;6.90;99.90;;;;;;5020953;28;20406;-85
2021/11/26 01:35:19;;;;;;;11.18;6.53;;;7.00;99.90;;;;;;5037513;28;20189;-83
2021/11/26 01:37:45;;;;;;;11.18;6.55;;;7.00;99.90;;;;;;5037804;28;20162;-84
2021/11/26 01:40:12;;;;;;;13.90;6.47;;;6.90;99.90;;;;;;5019539;28;20173;-84
2021/11/26 01:42:38;;;;;;;14.63;5.68;;;6.70;99.90;;;;;;5020136;28;20671;-83
2021/11/26 01:45:04;;;;;;;18.63;5.63;;;6.80;99.90;;;;;;5004992;28;20201;-84
2021/11/26 01:47:29;;;;;;;11.38;5.15;;;6.60;99.90;;;;;;5041783;28;20776;-84
2021/11/26 01:49:56;;;;;;;13.33;6.47;;;6.40;99.90;;;;;;5041881;28;20196;-85
2021/11/26 01:52:22;;;;;;;16.42;5.70;;;6.50;99.90;;;;;;5024272;28;20174;-84
2021/11/26 01:54:48;;;;;;;11.15;4.75;;;6.70;99.90;;;;;;5023591;28;20209;-85
2021/11/26 01:57:16;;;;;;;15.05;5.75;;;6.60;99.90;;;;;;5042488;28;20704;-84
2021/11/26 01:59:42;;;;;;;10.52;6.47;;;6.70;99.90;;;;;;5006880;28;20284;-84
2021/11/26 02:02:07;;;;;;;17.57;5.83;;;6.90;99.90;;;;;;5041307;28;20173;-84
2021/11/26 02:04:33;;;;;;;12.50;6.90;;;6.70;99.90;;;;;;5006102;28;20169;-85
2021/11/26 02:06:59;;;;;;;12.83;5.77;;;6.80;99.90;;;;;;5006341;28;20178;-83
2021/11/26 02:09:25;;;;;;;13.10;5.83;;;7.00;99.90;;;;;;5022996;28;20622;-84
2021/11/26 02:11:50;;;;;;;11.93;6.00;;;6.90;99.90;;;;;;5040872;28;20243;-84
2021/11/26 02:14:16;;;;;;;10.67;6.67;;;7.10;99.90;;;;;;5015858;28;20281;-85
2021/11/26 02:16:47;;;;;;;16.23;6.77;;;7.10;99.90;;;;;;5040848;28;20204;-83
2021/11/26 02:19:12;;;;;;;11.23;5.93;;;7.20;99.90;;;;;;5041328;28;20181;-85
2021/11/26 02:21:39;;;;;;;10.33;5.60;;;7.20;99.90;;;;;;5040182;28;20199;-85
2021/11/26 02:24:06;;;;;;;19.92;7.97;;;7.30;99.90;;;;;;5057577;28;20177;-85
2021/11/26 02:26:41;;;;;;;14.82;7.18;;;7.30;99.90;;;;;;5041579;28;20209;-85
2021/11/26 02:29:09;;;;;;;13.18;6.38;;;7.20;99.90;;;;;;5041673;28;20188;-85
2021/11/26 02:31:35;;;;;;;17.05;5.60;;;7.30;99.90;;;;;;5040715;28;20193;-85
2021/11/26 02:34:01;;;;;;;13.63;6.80;;;7.30;99.90;;;;;;5057613;28;20173;-85
2021/11/26 02:36:27;;;;;;;15.18;6.78;;;7.10;99.90;;;;;;5042809;28;20684;-85
2021/11/26 02:38:53;;;;;;;16.43;7.17;;;7.20;99.90;;;;;;5020965;28;20264;-83
2021/11/26 02:41:18;;;;;;;10.40;6.30;;;7.20;99.90;;;;;;5020506;28;20649;-85
2021/11/26 02:43:44;;;;;;;15.30;6.30;;;7.20;99.90;;;;;;5037634;28;20203;-85
2021/11/26 02:46:10;;;;;;;15.13;6.93;;;7.20;99.90;;;;;;5037757;28;20214;-85
2021/11/26 02:48:36;;;;;;;17.98;6.25;;;7.30;99.90;;;;;;5003975;28;20189;-85
2021/11/26 02:51:02;;;;;;;12.13;5.60;;;7.20;99.90;;;;;;5042329;28;20269;-84
2021/11/26 02:53:28;;;;;;;15.97;6.60;;;7.30;99.90;;;;;;5039269;28;20637;-85
2021/11/26 02:55:53;;;;;;;13.20;6.60;;;7.30;99.90;;;;;;5004559;28;20436;-85
2021/11/26 02:58:19;;;;;;;12.30;7.00;;;7.30;99.90;;;;;;5006139;28;20177;-85
2021/11/26 03:00:49;;;;;;;8.93;5.00;;;7.30;99.90;;;;;;5021595;28;20633;-84
2021/11/26 03:03:14;;;;;;;12.48;5.40;;;7.30;99.90;;;;;;5021735;28;20771;-85
2021/11/26 03:05:43;;;;;;;17.93;7.33;;;7.30;99.90;;;;;;5041162;28;20679;-84
2021/11/26 03:08:09;;;;;;;14.30;7.43;;;7.30;99.90;;;;;;5040691;28;20172;-84
2021/11/26 03:10:36;;;;;;;12.10;7.40;;;7.30;99.90;;;;;;5040962;28;20193;-84
2021/11/26 03:13:05;;;;;;;15.27;6.68;;;7.20;99.90;;;;;;5040619;28;20195;-84
2021/11/26 03:15:32;;;;;;;10.35;6.13;;;7.30;99.90;;;;;;5040753;28;20177;-84
2021/11/26 03:17:59;;;;;;;18.02;7.22;;;7.30;99.90;;;;;;5058120;28;20169;-85
2021/11/26 03:20:26;;;;;;;11.30;5.65;;;7.30;99.90;;;;;;5040709;28;20192;-85
2021/11/26 03:22:52;;;;;;;18.60;7.70;;;7.30;99.90;;;;;;5040084;28;20167;-84
2021/11/26 03:25:17;;;;;;;21.85;7.00;;;7.30;99.90;;;;;;5048390;28;20200;-83
2021/11/26 03:27:44;;;;;;;14.00;7.30;;;7.30;99.90;;;;;;4996156;28;20644;-85
2021/11/26 03:30:14;;;;;;;15.60;7.15;;;7.30;99.90;;;;;;5005516;28;20783;-84
2021/11/26 03:32:40;;;;;;;12.70;6.43;;;7.30;99.90;;;;;;5006410;28;20236;-84
2021/11/26 03:35:07;;;;;;;13.57;5.90;;;7.30;99.90;;;;;;5022286;28;20205;-82
2021/11/26 03:37:33;;;;;;;15.10;6.88;;;7.40;99.90;;;;;;5038746;28;20172;-84
2021/11/26 03:40:01;;;;;;;18.65;6.40;;;7.30;99.90;;;;;;5021472;28;20645;-84
2021/11/26 03:42:26;;;;;;;12.98;6.25;;;7.30;99.90;;;;;;5039271;28;20170;-84
2021/11/26 03:44:52;;;;;;;16.20;6.70;;;7.30;99.90;;;;;;5020143;28;20201;-84
2021/11/26 03:47:17;;;;;;;15.87;8.40;;;7.30;99.90;;;;;;5038429;28;20230;-84
2021/11/26 03:49:43;;;;;;;17.17;7.00;;;7.30;99.90;;;;;;5037403;28;20501;-84
2021/11/26 03:52:09;;;;;;;18.17;6.67;;;7.20;99.90;;;;;;5019804;28;20260;-83
2021/11/26 03:54:35;;;;;;;14.63;6.90;;;7.20;99.90;;;;;;5019631;28;20424;-83
2021/11/26 03:57:01;;;;;;;10.03;6.07;;;7.30;99.90;;;;;;5038164;28;20483;-84
2021/11/26 03:59:27;;;;;;;13.38;7.43;;;7.30;99.90;;;;;;5019701;28;20169;-83
2021/11/26 04:01:52;;;;;;;11.57;5.25;;;7.30;99.90;;;;;;5019872;28;20174;-84
2021/11/26 04:04:18;;;;;;;15.57;5.77;;;7.40;99.90;;;;;;5019444;28;20187;-84
2021/11/26 04:06:44;;;;;;;11.27;6.73;;;7.40;99.90;;;;;;5037778;28;20186;-84
2021/11/26 04:09:09;;;;;;;9.87;6.67;;;7.40;99.90;;;;;;5036934;28;20184;-84
2021/11/26 04:11:35;;;;;;;18.20;7.70;;;7.50;99.90;;;;;;5003682;28;20255;-84
2021/11/26 04:14:01;;;;;;;11.90;6.30;;;7.40;99.90;;;;;;5003512;28;20528;-84
2021/11/26 04:16:27;;;;;;;9.48;5.82;;;7.40;99.90;;;;;;5018668;28;20186;-84
2021/11/26 04:18:53;;;;;;;12.60;6.23;;;7.50;99.90;;;;;;5003508;28;20307;-83
2021/11/26 04:21:18;;;;;;;15.00;6.73;;;7.50;99.90;;;;;;5003277;28;20181;-83
2021/11/26 04:23:44;;;;;;;9.57;6.30;;;7.40;99.90;;;;;;5019587;28;20180;-83
2021/11/26 04:26:16;;;;;;;16.63;5.63;;;7.40;99.90;;;;;;5003902;28;20285;-84
2021/11/26 04:28:42;;;;;;;11.82;5.75;;;7.40;99.90;;;;;;5020127;28;20447;-84
2021/11/26 04:31:08;;;;;;;13.57;6.27;;;7.40;99.90;;;;;;5003451;28;20209;-84
2021/11/26 04:33:34;;;;;;;18.00;6.60;;;7.40;99.90;;;;;;5019946;28;20204;-84
2021/11/26 04:36:00;;;;;;;13.07;6.72;;;7.30;99.90;;;;;;5020313;28;20475;-83
2021/11/26 04:38:26;;;;;;;13.75;7.45;;;7.40;99.90;;;;;;5019286;28;20248;-83
2021/11/26 04:40:52;;;;;;;14.73;6.25;;;7.40;99.90;;;;;;5002893;28;20353;-84
2021/11/26 04:43:17;;;;;;;22.33;8.10;;;7.40;99.90;;;;;;5019953;28;20725;-84
2021/11/26 04:45:43;;;;;;;17.53;7.20;;;7.40;99.90;;;;;;5003351;28;20201;-83
2021/11/26 04:48:09;;;;;;;12.43;7.90;;;7.40;99.90;;;;;;5003487;28;20239;-84
2021/11/26 04:50:35;;;;;;;14.57;6.35;;;7.30;99.90;;;;;;5003214;28;20217;-84
2021/11/26 04:53:01;;;;;;;19.00;6.73;;;7.40;99.90;;;;;;5002907;28;20273;-84
2021/11/26 04:55:27;;;;;;;22.33;5.80;;;7.40;99.90;;;;;;5036110;28;20193;-84
2021/11/26 04:57:53;;;;;;;14.32;6.15;;;7.30;99.90;;;;;;5036041;28;20157;-84
2021/11/26 05:00:20;;;;;;;16.40;5.57;;;7.40;99.90;;;;;;5035743;28;20591;-83
2021/11/26 05:02:49;;;;;;;12.43;6.40;;;7.40;99.90;;;;;;5000793;28;20200;-84
2021/11/26 05:05:15;;;;;;;10.52;5.55;;;7.40;99.90;;;;;;5017441;28;20193;-84
2021/11/26 05:07:41;;;;;;;16.53;6.40;;;7.40;99.90;;;;;;5036166;28;20180;-83
2021/11/26 05:10:08;;;;;;;10.45;4.90;;;7.30;99.90;;;;;;5019047;28;20272;-83
2021/11/26 05:12:38;;;;;;;12.48;5.60;;;7.30;99.90;;;;;;5019398;28;20265;-84
2021/11/26 05:15:05;;;;;;;10.88;6.10;;;7.40;99.90;;;;;;5037014;28;20189;-85
2021/11/26 05:17:31;;;;;;;13.50;7.15;;;7.40;99.90;;;;;;5003342;28;20181;-83
2021/11/26 05:19:58;;;;;;;14.20;5.70;;;7.40;99.90;;;;;;5044236;28;20225;-85
2021/11/26 05:22:24;;;;;;;11.73;5.55;;;7.40;99.90;;;;;;5041035;28;20434;-85
2021/11/26 05:24:50;;;;;;;14.35;6.30;;;7.30;99.90;;;;;;5025017;28;20261;-84
2021/11/26 05:27:16;;;;;;;12.80;6.27;;;7.40;99.90;;;;;;5041197;28;20224;-85
2021/11/26 05:29:42;;;;;;;20.88;6.13;;;7.40;99.90;;;;;;5025650;28;20237;-83
2021/11/26 05:32:09;;;;;;;10.90;6.00;;;7.30;99.90;;;;;;5039563;28;20232;-84
2021/11/26 05:34:35;;;;;;;16.05;6.57;;;7.40;99.90;;;;;;5023340;28;20204;-84
2021/11/26 05:37:01;;;;;;;16.37;7.17;;;7.40;99.90;;;;;;5023222;28;20169;-84
2021/11/26 05:39:26;;;;;;;12.63;6.07;;;7.30;99.90;;;;;;5006835;28;20419;-83
2021/11/26 05:41:52;;;;;;;17.07;6.37;;;7.40;99.90;;;;;;5006365;28;20253;-83
2021/11/26 05:44:18;;;;;;;12.77;6.83;;;7.40;99.90;;;;;;5022912;28;20173;-83
2021/11/26 05:46:44;;;;;;;16.67;6.73;;;7.30;99.90;;;;;;5040389;28;20221;-83
2021/11/26 05:49:09;;;;;;;18.40;6.93;;;7.20;99.90;;;;;;5006088;28;20184;-83
2021/11/26 05:51:35;;;;;;;17.20;6.17;;;7.20;99.90;;;;;;5023001;28;20265;-83
2021/11/26 05:54:00;;;;;;;11.00;5.87;;;7.30;99.90;;;;;;5022814;28;20177;-83
2021/11/26 05:56:26;;;;;;;11.57;6.40;;;7.30;99.90;;;;;;5023257;28;20200;-84
2021/11/26 05:58:52;;;;;;;16.67;7.37;;;7.30;99.90;;;;;;5023427;28;20180;-83
2021/11/26 06:01:18;;;;;;;8.30;5.30;;;7.30;99.90;;;;;;5022640;28;20499;-83
2021/11/26 06:03:43;;;;;;;12.40;6.00;;;7.30;99.90;;;;;;5039503;28;20548;-83
2021/11/26 06:06:09;;;;;;;17.10;5.50;;;7.40;99.90;;;;;;5021467;28;20197;-82
2021/11/26 06:08:37;;;;;;;12.03;6.87;;;7.40;99.90;;;;;;5021969;28;20177;-83
2021/11/26 06:11:03;;;;;;;12.05;6.15;;;7.50;99.90;;;;;;5040153;28;20263;-82
2021/11/26 06:13:29;;;;;;;10.60;6.43;;;7.50;99.90;;;;;;5022773;28;20169;-83
2021/11/26 06:15:54;;;;;;;13.37;6.73;;;7.50;99.90;;;;;;5023322;28;20457;-82
2021/11/26 06:18:20;;;;;;;10.57;5.23;;;7.40;99.90;;;;;;5038732;28;20200;-82
2021/11/26 06:20:46;;;;;;;13.40;7.20;;;7.40;99.90;;;;;;5039119;28;20291;-83
2021/11/26 06:23:11;;;;;;;21.03;7.93;;;7.40;99.90;;;;;;5020124;28;20178;-82
2021/11/26 06:25:37;;;;;;;12.37;5.40;;;7.50;99.90;;;;;;5022786;28;20692;-82
2021/11/26 06:28:03;;;;;;;11.43;5.20;;;7.50;99.90;;;;;;5026301;28;20668;-83
2021/11/26 06:30:29;;;;;;;7.50;4.33;;;7.50;99.90;;;;;;4994732;28;20468;-83
2021/11/26 06:32:55;;;;;;;11.07;5.27;;;7.50;99.90;;;;;;5012948;28;20470;-83
2021/11/26 06:35:22;;;;;;;10.63;4.53;;;7.20;99.90;;;;;;5041305;28;20276;-84
2021/11/26 06:37:49;;;;;;;11.00;5.38;;;6.90;99.90;;;;;;5020463;28;20177;-83
2021/11/26 06:40:15;;;;;;;14.77;6.10;;;6.80;99.90;;;;;;5012478;28;20165;-83
2021/11/26 06:42:41;;;;;;;15.50;6.32;;;6.90;99.90;;;;;;5021225;28;20177;-83
2021/11/26 06:45:09;;;;;;;11.30;5.85;;;7.00;99.90;;;;;;5023421;28;20332;-83
2021/11/26 06:47:35;;;;;;;13.85;5.38;;;7.00;99.90;;;;;;5006573;28;20221;-85
2021/11/26 06:50:03;;;;;;;15.55;5.65;;;7.10;99.90;;;;;;5021725;28;20170;-83
2021/11/26 06:52:28;;;;;;;14.43;5.45;;;6.90;99.90;;;;;;5004879;28;20589;-85
2021/11/26 06:54:54;;;;;;;16.27;5.33;;;7.00;99.90;;;;;;5022480;28;20225;-83
2021/11/26 06:57:21;;;;;;;8.83;4.63;;;6.90;99.90;;;;;;5023811;28;20428;-87
2021/11/26 06:59:46;;;;;;;8.00;4.75;;;6.90;99.90;;;;;;5006231;28;20405;-84
2021/11/26 07:02:13;;;;;;;15.57;5.83;;;7.00;99.90;;;;;;5022408;28;20178;-85
2021/11/26 07:04:40;;;;;;;11.38;5.72;;;7.10;99.90;;;;;;4988080;28;20190;-86
2021/11/26 07:07:06;;;;;;;14.75;5.40;;;7.00;99.90;;;;;;5000752;28;20182;-85
2021/11/26 07:09:32;;;;;;;9.00;5.40;;;7.10;99.90;;;;;;5010317;28;20253;-86
2021/11/26 07:11:58;;;;;;;11.80;5.20;;;7.20;99.90;;;;;;5050290;28;20211;-85
2021/11/26 07:14:23;;;;;;;11.93;4.40;;;7.30;99.90;;;;;;5023881;28;20177;-85
2021/11/26 07:16:49;;;;;;;14.93;6.33;;;7.30;99.90;;;;;;5039486;28;20182;-89
2021/11/26 07:19:18;;;;;;;12.93;5.50;;;7.30;99.90;;;;;;5042039;28;20169;-87
2021/11/26 07:21:44;;;;;;;7.72;4.50;;;7.40;99.90;;;;;;5025907;28;20515;-85
2021/11/26 07:24:10;;;;;;;6.60;3.60;;;7.40;99.90;;;;;;5010591;28;20653;-82
2021/11/26 07:26:36;;;;;;;10.65;4.82;;;7.70;99.90;;;;;;5035399;28;20955;-84
2021/11/26 07:29:02;;;;;;;10.00;5.90;;;7.70;99.90;;;;;;5020590;28;20178;-85
2021/11/26 07:31:27;;;;;;;16.93;5.00;;;7.80;99.90;;;;;;5019331;28;20209;-84
2021/11/26 07:33:53;;;;;;;9.10;4.77;;;7.70;99.90;;;;;;5020391;28;20465;-84
2021/11/26 07:36:19;;;;;;;10.83;4.70;;;7.70;99.90;;;;;;5038633;28;20213;-84
2021/11/26 07:38:45;;;;;;;10.20;5.17;;;7.90;99.90;;;;;;5000024;28;20205;-85
2021/11/26 07:41:15;;;;;;;9.07;4.57;;;8.00;99.90;;;;;;5009405;28;20205;-84
2021/11/26 07:43:40;;;;;;;7.65;4.95;;;7.90;99.90;;;;;;5006893;28;20237;-83
2021/11/26 07:46:06;;;;;;;8.40;4.53;;;7.90;99.90;;;;;;5010689;28;20193;-83
2021/11/26 07:48:32;;;;;;;9.60;5.20;;;7.70;99.90;;;;;;5038033;28;20174;-83
2021/11/26 07:50:58;;;;;;;9.20;5.13;;;7.50;99.90;;;;;;5027061;28;20201;-84
2021/11/26 07:53:31;;;;;;;13.10;5.30;;;7.40;99.90;;;;;;5032242;28;20477;-83
2021/11/26 07:55:58;;;;;;;8.90;4.40;;;7.60;99.90;;;;;;5005853;28;20455;-84
2021/11/26 07:58:23;;;;;;;21.42;5.22;;;7.90;99.90;;;;;;4987392;28;20170;-80
2021/11/26 08:00:49;;;;;;;13.50;4.30;;;7.90;99.90;;;;;;4999544;28;20212;-81
2021/11/26 08:03:17;;;;;;;10.23;5.00;;;8.00;99.90;;;;;;5016294;28;20174;-81
2021/11/26 08:05:43;;;;;;;10.45;4.65;;;8.00;99.90;;;;;;5023920;28;20200;-81
2021/11/26 08:08:09;;;;;;;8.80;4.63;;;8.10;99.90;;;;;;5018508;28;20674;-80
2021/11/26 08:10:37;;;;;;;8.30;4.60;;;8.10;99.90;;;;;;5035287;28;20197;-80
2021/11/26 08:13:04;;;;;;;6.38;3.92;;;8.10;99.90;;;;;;5034714;28;20480;-80
2021/11/26 08:15:31;;;;;;;9.38;5.07;;;8.10;99.90;;;;;;4996061;28;20220;-82
2021/11/26 08:17:59;;;;;;;9.57;5.90;;;8.10;99.90;;;;;;5022133;28;20173;-85
2021/11/26 08:20:25;;;;;;;9.27;5.65;;;8.00;99.90;;;;;;5035011;28;20184;-85
2021/11/26 08:22:51;;;;;;;8.10;3.85;;;7.80;99.90;;;;;;5019187;28;20185;-85
2021/11/26 08:25:19;;;;;;;10.40;5.13;;;7.90;99.90;;;;;;5005197;28;20209;-86
2021/11/26 08:27:47;;;;;;;9.98;5.65;;;7.70;99.90;;;;;;4999611;28;20194;-85
2021/11/26 08:30:14;;;;;;;9.23;4.43;;;7.30;99.90;;;;;;4969353;28;20205;-85
2021/11/26 08:32:39;;;;;;;13.32;5.43;;;7.30;99.90;;;;;;5003024;28;20279;-85
2021/11/26 08:35:06;;;;;;;9.17;4.57;;;7.30;99.90;;;;;;5019973;28;20228;-85
2021/11/26 08:37:32;;;;;;;8.40;4.57;;;7.10;99.90;;;;;;5002728;28;20937;-84
2021/11/26 08:40:03;;;;;;;11.00;4.77;;;6.90;99.90;;;;;;4983309;28;20209;-83
2021/11/26 08:42:29;;;;;;;10.35;5.85;;;6.80;99.90;;;;;;5000393;28;20484;-85
2021/11/26 08:44:55;;;;;;;12.77;5.47;;;6.80;99.90;;;;;;5019440;28;20675;-84
2021/11/26 08:47:21;;;;;;;12.20;5.60;;;6.80;99.90;;;;;;5023157;28;20421;-84
2021/11/26 08:49:47;;;;;;;9.90;4.37;;;6.90;99.90;;;;;;5003195;28;20940;-83
2021/11/26 08:52:15;;;;;;;10.90;5.07;;;7.00;99.90;;;;;;5000899;28;20446;-83
2021/11/26 08:54:41;;;;;;;10.57;5.85;;;7.30;99.90;;;;;;5002392;28;20501;-82
2021/11/26 08:57:07;;;;;;;11.63;5.80;;;7.40;99.90;;;;;;5007389;28;20178;-82
2021/11/26 08:59:33;;;;;;;15.15;5.70;;;7.70;99.90;;;;;;5036930;28;20176;-83
2021/11/26 09:01:59;;;;;;;14.27;5.50;;;7.70;99.90;;;;;;5037371;28;20181;-82
2021/11/26 09:04:25;;;;;;;11.43;6.20;;;7.80;99.90;;;;;;5020320;28;20640;-84
2021/11/26 09:06:52;;;;;;;9.90;5.60;;;8.00;99.90;;;;;;4992363;28;20186;-84
2021/11/26 09:09:22;;;;;;;14.50;5.60;;;8.00;99.90;;;;;;5024617;28;20231;-86
2021/11/26 09:11:49;;;;;;;9.63;5.43;;;8.10;99.90;;;;;;5019017;28;20272;-85
2021/11/26 09:14:15;;;;;;;12.00;6.00;;;8.10;99.90;;;;;;5010195;28;20269;-84
2021/11/26 09:16:44;;;;;;;18.10;5.90;;;8.10;99.90;;;;;;5020256;28;20190;-83
2021/11/26 09:19:10;;;;;;;15.45;6.70;;;8.00;99.90;;;;;;5018373;28;20178;-85
2021/11/26 09:21:36;;;;;;;9.43;4.73;;;7.80;99.90;;;;;;5017223;28;20238;-83
2021/11/26 09:24:02;;;;;;;16.20;5.17;;;7.60;99.90;;;;;;5012823;28;20186;-84
2021/11/26 09:26:27;;;;;;;14.07;4.93;;;7.70;99.90;;;;;;5042089;28;20537;-83
2021/11/26 09:28:54;;;;;;;14.70;6.80;;;7.80;99.90;;;;;;4968479;28;20416;-84
2021/11/26 09:31:20;;;;;;;9.73;5.18;;;7.60;99.90;;;;;;5010179;28;21002;-84
2021/11/26 09:33:47;;;;;;;13.13;6.10;;;7.70;99.90;;;;;;5018088;28;20182;-84
2021/11/26 09:36:13;;;;;;;12.73;6.18;;;7.70;99.90;;;;;;5003050;28;20221;-84
2021/11/26 09:38:42;;;;;;;15.15;5.70;;;7.70;99.90;;;;;;5030533;28;20194;-84
2021/11/26 09:41:09;;;;;;;11.48;5.35;;;7.60;99.90;;;;;;5001487;28;20248;-84
2021/11/26 09:43:35;;;;;;;8.20;4.20;;;7.50;99.90;;;;;;4982889;28;20210;-83
2021/11/26 09:46:04;;;;;;;10.70;5.97;;;7.40;99.90;;;;;;5004585;28;20555;-84
2021/11/26 09:48:35;;;;;;;16.38;5.57;;;7.40;99.90;;;;;;5020611;28;20663;-82
2021/11/26 09:51:05;;;;;;;13.05;6.30;;;7.60;99.90;;;;;;5018528;28;20206;-84
2021/11/26 09:53:33;;;;;;;13.57;5.82;;;7.80;99.90;;;;;;5018539;28;20185;-84
2021/11/26 09:56:03;;;;;;;14.98;6.60;;;7.80;99.90;;;;;;5017524;28;20200;-84
2021/11/26 09:58:30;;;;;;;14.63;6.47;;;7.80;99.90;;;;;;5019472;28;20173;-86
2021/11/26 10:00:57;;;;;;;13.50;6.78;;;7.80;99.90;;;;;;5019726;28;20229;-85
2021/11/26 10:03:40;;;;;;;16.52;6.95;;;7.90;99.90;;;;;;5015113;28;20646;-85
2021/11/26 10:06:19;;;;;;;16.50;6.78;;;8.00;99.90;;;;;;5000894;28;20198;-86
2021/11/26 10:08:55;;;;;;;15.48;7.00;;;8.00;99.90;;;;;;5003570;28;20178;-86
2021/11/26 10:11:32;;;;;;;15.52;7.20;;;8.00;99.90;;;;;;5016425;28;20216;-85
2021/11/26 10:13:58;;;;;;;14.38;7.05;;;8.10;99.90;;;;;;5023591;28;20537;-86
2021/11/26 10:16:24;;;;;;;11.67;5.80;;;8.10;99.90;;;;;;5027152;28;20190;-86
2021/11/26 10:18:52;;;;;;;15.53;8.00;;;8.00;99.90;;;;;;5004674;28;20211;-86
2021/11/26 10:21:19;;;;;;;14.20;6.90;;;7.90;99.90;;;;;;5015245;28;20252;-86
2021/11/26 10:23:48;;;;;;;17.05;8.65;;;8.00;99.90;;;;;;5032775;28;20233;-85
2021/11/26 10:26:17;;;;;;;18.85;8.70;;;8.00;99.90;;;;;;5041483;28;20269;-86
2021/11/26 10:28:47;;;;;;;13.80;7.47;;;8.00;99.90;;;;;;5019118;28;20191;-83
2021/11/26 10:31:29;;;;;;;15.73;7.60;;;8.00;99.90;;;;;;5020824;28;20251;-82
2021/11/26 10:33:58;;;;;;;14.70;7.22;;;8.00;99.90;;;;;;5056408;28;20161;-83
2021/11/26 10:36:25;;;;;;;15.10;7.40;;;8.00;99.90;;;;;;5059223;28;20193;-86
2021/11/26 10:38:52;;;;;;;18.02;7.82;;;7.80;99.90;;;;;;5046217;28;20166;-84
2021/11/26 10:41:26;;;;;;;19.02;7.90;;;7.80;99.90;;;;;;5030900;28;20216;-82
2021/11/26 10:44:06;;;;;;;21.25;7.28;;;7.90;99.90;;;;;;5039550;28;20240;-83
2021/11/26 10:46:47;;;;;;;17.40;8.55;;;7.80;99.90;;;;;;5049049;28;20204;-82
2021/11/26 10:52:48;;;;;;;15.07;7.40;;;7.90;99.90;;;;;;4958605;28;20203;-84
2021/11/26 11:00:49;;;;;;;15.18;6.65;;;8.20;99.90;;;;;;5032750;28;20660;-85
2021/11/26 11:03:23;;;;;;;16.73;7.95;;;8.20;99.90;;;;;;5002259;28;20225;-85
2021/11/26 11:05:51;;;;;;;17.42;8.23;;;8.30;99.90;;;;;;5020298;28;20192;-85
2021/11/26 11:08:22;;;;;;;14.95;6.50;;;8.20;99.90;;;;;;4992714;28;20182;-83
2021/11/26 11:10:49;;;;;;;13.70;7.63;;;8.20;99.90;;;;;;5029252;28;20190;-83
2021/11/26 11:13:16;;;;;;;25.15;10.60;;;8.10;99.90;;;;;;5014228;28;20181;-84
2021/11/26 11:15:44;;;;;;;19.90;8.43;;;8.10;99.90;;;;;;5012431;28;20193;-83
2021/11/26 11:18:10;;;;;;;17.10;8.98;;;8.10;99.90;;;;;;5020337;28;20186;-85
2021/11/26 11:20:37;;;;;;;15.25;8.10;;;8.20;99.90;;;;;;5007695;28;20600;-84
2021/11/26 11:23:04;;;;;;;17.65;7.32;;;8.30;99.90;;;;;;5027089;28;20236;-83
2021/11/26 11:25:30;;;;;;;13.95;6.50;;;8.30;99.90;;;;;;5003671;28;20197;-85
2021/11/26 11:28:04;;;;;;;17.83;6.93;;;8.30;99.90;;;;;;5020293;28;20194;-84
2021/11/26 11:30:33;;;;;;;20.13;8.38;;;8.20;99.90;;;;;;5003017;28;20575;-83
2021/11/26 11:32:59;;;;;;;18.15;7.60;;;8.30;99.90;;;;;;5010529;28;20182;-84
2021/11/26 11:35:30;;;;;;;13.70;6.60;;;8.30;99.90;;;;;;5005284;28;20754;-84
2021/11/26 11:37:59;;;;;;;14.82;7.35;;;8.20;99.90;;;;;;5021775;28;20182;-84
2021/11/26 11:40:35;;;;;;;14.20;7.03;;;8.20;99.90;;;;;;4996366;28;20233;-83
2021/11/26 11:43:14;;;;;;;15.52;6.65;;;8.30;99.90;;;;;;5020280;28;20162;-86
2021/11/26 11:45:52;;;;;;;14.23;7.82;;;8.30;99.90;;;;;;5017900;28;20197;-83
2021/11/26 11:48:36;;;;;;;21.67;9.45;;;8.30;99.90;;;;;;5017961;28;20260;-84
2021/11/26 11:51:05;;;;;;;18.38;8.10;;;8.40;99.90;;;;;;5008326;28;20189;-81
2021/11/26 11:53:36;;;;;;;10.60;5.78;;;8.40;99.90;;;;;;5034898;28;20177;-85
2021/11/26 11:56:23;;;;;;;16.13;6.57;;;8.40;99.90;;;;;;5001834;28;20187;-85
2021/11/26 11:58:54;;;;;;;11.57;6.40;;;8.40;99.90;;;;;;5021267;28;20177;-84
2021/11/26 12:01:29;;;;;;;20.05;7.70;;;8.40;99.90;;;;;;5022413;28;20173;-82
2021/11/26 12:03:57;;;;;;;15.38;6.30;;;8.30;99.90;;;;;;5009965;28;20204;-83
2021/11/26 12:06:39;;;;;;;17.48;7.22;;;8.20;99.90;;;;;;5019196;28;20221;-84
2021/11/26 12:09:05;;;;;;;13.30;6.18;;;8.10;99.90;;;;;;5000630;28;20186;-84
2021/11/26 12:11:35;;;;;;;18.05;8.50;;;8.10;99.90;;;;;;5005655;28;20228;-83
2021/11/26 12:14:04;;;;;;;13.02;6.00;;;8.10;99.90;;;;;;5019692;28;20499;-84
2021/11/26 12:16:43;;;;;;;14.43;6.88;;;8.10;99.90;;;;;;5034465;28;20232;-84
2021/11/26 12:19:19;;;;;;;23.27;8.68;;;8.00;99.90;;;;;;5017713;28;20173;-85
2021/11/26 12:21:48;;;;;;;20.70;8.07;;;8.00;99.90;;;;;;5008728;28;20173;-85
2021/11/26 12:24:22;;;;;;;12.20;6.80;;;8.00;99.90;;;;;;5010330;28;20189;-84
2021/11/26 12:26:56;;;;;;;14.45;6.53;;;7.90;99.90;;;;;;5026326;28;20196;-85
2021/11/26 12:29:43;;;;;;;20.67;8.95;;;7.90;99.90;;;;;;5015572;28;20186;-84
2021/11/26 12:32:17;;;;;;;17.83;8.32;;;7.80;99.90;;;;;;5013540;28;20209;-84
2021/11/26 12:34:52;;;;;;;25.55;8.60;;;7.90;99.90;;;;;;5007694;28;20185;-84
2021/11/26 12:37:27;;;;;;;14.70;7.65;;;7.90;99.90;;;;;;5026179;28;20260;-84
2021/11/26 12:39:56;;;;;;;14.40;6.47;;;7.90;99.90;;;;;;5006652;28;20212;-84
2021/11/26 12:42:22;;;;;;;14.93;6.30;;;7.80;99.90;;;;;;5013448;28;20184;-85
2021/11/26 12:45:06;;;;;;;14.35;7.00;;;7.80;99.90;;;;;;5021351;28;20235;-85
2021/11/26 12:47:43;;;;;;;8.73;5.20;;;7.80;99.90;;;;;;5029871;28;20169;-82
2021/11/26 12:53:20;;;;;;;13.13;6.28;;;7.70;99.90;;;;;;5027733;28;20184;-83
2021/11/26 12:56:04;;;;;;;15.05;6.63;;;7.70;99.90;;;;;;5023601;28;20205;-84
2021/11/26 12:58:33;;;;;;;13.07;5.45;;;7.70;99.90;;;;;;5026737;28;20623;-84
2021/11/26 13:01:07;;;;;;;10.80;5.35;;;7.80;99.90;;;;;;5028816;28;20257;-84
2021/11/26 13:03:43;;;;;;;12.05;5.40;;;7.70;99.90;;;;;;5031709;28;20204;-83
2021/11/26 13:06:19;;;;;;;10.25;6.40;;;7.70;99.90;;;;;;5008156;28;20292;-85